sensor_id;sensor_type;location;lat;lon;timestamp;pressure;altitude;pressure_sealevel;temperature;humidity
11448;BME280;43755;49.736;8.734;2022-11-15T00:01:43;97552.34;;;12.08;100.00
11448;BME280;43755;49.736;8.734;2022-11-15T00:03:45;97553.91;;;12.12;100.00
11448;BME280;43755;49.736;8.734;2022-11-15T00:05:46;97553.13;;;12.10;100.00
11448;BME280;43755;49.736;8.734;2022-11-15T00:07:48;97550.41;;;12.11;100.00
11448;BME280;43755;49.736;8.734;2022-11-15T00:09:49;97553.41;;;12.05;100.00
11448;BME280;43755;49.736;8.734;2022-11-15T00:11:52;97548.16;;;12.19;100.00
11448;BME280;43755;49.736;8.734;2022-11-15T00:13:54;97543.22;;;12.29;100.00
11448;BME280;43755;49.736;8.734;2022-11-15T00:15:57;97551.09;;;12.30;100.00
11448;BME280;43755;49.736;8.734;2022-11-15T00:17:59;97559.06;;;12.30;100.00
11448;BME280;43755;49.736;8.734;2022-11-15T00:20:00;97552.88;;;12.30;100.00
11448;BME280;43755;49.736;8.734;2022-11-15T00:22:01;97553.03;;;12.27;100.00
11448;BME280;43755;49.736;8.734;2022-11-15T00:24:03;97555.63;;;12.28;100.00
11448;BME280;43755;49.736;8.734;2022-11-15T00:26:05;97556.28;;;12.32;100.00
11448;BME280;43755;49.736;8.734;2022-11-15T00:28:08;97553.56;;;12.34;100.00
11448;BME280;43755;49.736;8.734;2022-11-15T00:30:10;97558.28;;;12.28;100.00
11448;BME280;43755;49.736;8.734;2022-11-15T00:32:12;97545.69;;;12.32;100.00
11448;BME280;43755;49.736;8.734;2022-11-15T00:34:14;97546.38;;;12.36;100.00
11448;BME280;43755;49.736;8.734;2022-11-15T00:36:15;97543.88;;;12.32;100.00
11448;BME280;43755;49.736;8.734;2022-11-15T00:38:16;97543.47;;;12.24;100.00
11448;BME280;43755;49.736;8.734;2022-11-15T00:40:18;97547.06;;;12.23;100.00
11448;BME280;43755;49.736;8.734;2022-11-15T00:42:19;97540.13;;;12.21;100.00
11448;BME280;43755;49.736;8.734;2022-11-15T00:44:22;97541.34;;;12.15;100.00
11448;BME280;43755;49.736;8.734;2022-11-15T00:46:23;97533.78;;;12.08;100.00
11448;BME280;43755;49.736;8.734;2022-11-15T00:48:24;97540.81;;;12.09;100.00
11448;BME280;43755;49.736;8.734;2022-11-15T00:50:28;97540.94;;;12.07;100.00
11448;BME280;43755;49.736;8.734;2022-11-15T00:52:30;97542.81;;;12.05;100.00
11448;BME280;43755;49.736;8.734;2022-11-15T00:54:31;97533.41;;;12.00;100.00
11448;BME280;43755;49.736;8.734;2022-11-15T00:56:33;97528.00;;;12.01;100.00
11448;BME280;43755;49.736;8.734;2022-11-15T00:58:34;97525.38;;;12.01;100.00
11448;BME280;43755;49.736;8.734;2022-11-15T01:00:37;97538.63;;;12.01;100.00
11448;BME280;43755;49.736;8.734;2022-11-15T01:02:38;97534.31;;;11.99;100.00
11448;BME280;43755;49.736;8.734;2022-11-15T01:04:40;97535.09;;;12.01;100.00
11448;BME280;43755;49.736;8.734;2022-11-15T01:06:41;97529.88;;;11.99;100.00
11448;BME280;43755;49.736;8.734;2022-11-15T01:08:42;97531.69;;;11.83;100.00
11448;BME280;43755;49.736;8.734;2022-11-15T01:10:44;97526.53;;;11.80;100.00
11448;BME280;43755;49.736;8.734;2022-11-15T01:12:45;97523.97;;;11.78;100.00
11448;BME280;43755;49.736;8.734;2022-11-15T01:14:47;97519.28;;;11.83;100.00
11448;BME280;43755;49.736;8.734;2022-11-15T01:16:49;97520.38;;;11.79;100.00
11448;BME280;43755;49.736;8.734;2022-11-15T01:18:51;97516.88;;;11.79;100.00
11448;BME280;43755;49.736;8.734;2022-11-15T01:20:52;97517.13;;;11.74;100.00
11448;BME280;43755;49.736;8.734;2022-11-15T01:22:54;97514.19;;;11.63;100.00
11448;BME280;43755;49.736;8.734;2022-11-15T01:24:55;97520.00;;;11.54;100.00
11448;BME280;43755;49.736;8.734;2022-11-15T01:26:56;97517.69;;;11.48;100.00
11448;BME280;43755;49.736;8.734;2022-11-15T01:28:58;97525.94;;;11.42;100.00
11448;BME280;43755;49.736;8.734;2022-11-15T01:30:59;97512.06;;;11.37;100.00
11448;BME280;43755;49.736;8.734;2022-11-15T01:33:02;97511.47;;;11.32;100.00
11448;BME280;43755;49.736;8.734;2022-11-15T01:35:04;97509.41;;;11.21;100.00
11448;BME280;43755;49.736;8.734;2022-11-15T01:37:06;97504.50;;;11.14;100.00
11448;BME280;43755;49.736;8.734;2022-11-15T01:39:07;97504.75;;;11.09;100.00
11448;BME280;43755;49.736;8.734;2022-11-15T01:41:15;97509.97;;;11.11;100.00
11448;BME280;43755;49.736;8.734;2022-11-15T01:43:22;97510.38;;;11.03;100.00
11448;BME280;43755;49.736;8.734;2022-11-15T01:45:24;97512.88;;;11.06;100.00
11448;BME280;43755;49.736;8.734;2022-11-15T01:47:29;97514.59;;;11.07;100.00
11448;BME280;43755;49.736;8.734;2022-11-15T01:49:35;97515.66;;;11.03;100.00
11448;BME280;43755;49.736;8.734;2022-11-15T01:51:39;97500.41;;;10.91;100.00
11448;BME280;43755;49.736;8.734;2022-11-15T01:53:42;97501.28;;;10.91;100.00
11448;BME280;43755;49.736;8.734;2022-11-15T01:55:46;97504.84;;;10.90;100.00
11448;BME280;43755;49.736;8.734;2022-11-15T01:57:50;97500.81;;;11.00;100.00
11448;BME280;43755;49.736;8.734;2022-11-15T01:59:54;97509.50;;;11.02;100.00
11448;BME280;43755;49.736;8.734;2022-11-15T02:01:57;97501.41;;;11.05;100.00
11448;BME280;43755;49.736;8.734;2022-11-15T02:03:59;97498.38;;;11.13;100.00
11448;BME280;43755;49.736;8.734;2022-11-15T02:06:05;97496.66;;;11.12;100.00
11448;BME280;43755;49.736;8.734;2022-11-15T02:08:06;97497.59;;;11.11;100.00
11448;BME280;43755;49.736;8.734;2022-11-15T02:10:21;97495.22;;;11.22;100.00
11448;BME280;43755;49.736;8.734;2022-11-15T02:12:23;97490.59;;;11.26;100.00
11448;BME280;43755;49.736;8.734;2022-11-15T02:14:26;97491.31;;;11.29;100.00
11448;BME280;43755;49.736;8.734;2022-11-15T02:16:35;97479.34;;;11.38;100.00
11448;BME280;43755;49.736;8.734;2022-11-15T02:18:46;97480.16;;;11.40;100.00
11448;BME280;43755;49.736;8.734;2022-11-15T02:20:58;97475.63;;;11.42;100.00
11448;BME280;43755;49.736;8.734;2022-11-15T02:23:20;97473.59;;;11.47;100.00
11448;BME280;43755;49.736;8.734;2022-11-15T02:25:37;97470.47;;;11.39;100.00
11448;BME280;43755;49.736;8.734;2022-11-15T02:27:53;97462.47;;;11.40;100.00
11448;BME280;43755;49.736;8.734;2022-11-15T02:30:13;97467.56;;;11.28;100.00
11448;BME280;43755;49.736;8.734;2022-11-15T02:32:18;97457.97;;;11.25;100.00
11448;BME280;43755;49.736;8.734;2022-11-15T02:34:28;97448.69;;;11.18;100.00
11448;BME280;43755;49.736;8.734;2022-11-15T02:36:40;97460.84;;;11.05;100.00
11448;BME280;43755;49.736;8.734;2022-11-15T02:38:47;97461.25;;;10.97;100.00
11448;BME280;43755;49.736;8.734;2022-11-15T02:40:56;97445.63;;;10.93;100.00
11448;BME280;43755;49.736;8.734;2022-11-15T02:43:06;97451.06;;;10.90;100.00
11448;BME280;43755;49.736;8.734;2022-11-15T02:45:30;97445.88;;;10.88;100.00
11448;BME280;43755;49.736;8.734;2022-11-15T02:47:36;97443.50;;;10.99;100.00
11448;BME280;43755;49.736;8.734;2022-11-15T02:49:43;97454.81;;;10.86;100.00
11448;BME280;43755;49.736;8.734;2022-11-15T02:51:47;97453.97;;;10.85;100.00
11448;BME280;43755;49.736;8.734;2022-11-15T02:53:50;97446.44;;;10.78;100.00
11448;BME280;43755;49.736;8.734;2022-11-15T02:55:53;97447.16;;;10.64;100.00
11448;BME280;43755;49.736;8.734;2022-11-15T02:58:06;97448.72;;;10.51;100.00
11448;BME280;43755;49.736;8.734;2022-11-15T03:00:12;97452.59;;;10.44;100.00
11448;BME280;43755;49.736;8.734;2022-11-15T03:02:23;97440.84;;;10.49;100.00
11448;BME280;43755;49.736;8.734;2022-11-15T03:04:34;97448.69;;;10.68;100.00
11448;BME280;43755;49.736;8.734;2022-11-15T03:06:42;97427.47;;;10.70;100.00
11448;BME280;43755;49.736;8.734;2022-11-15T03:08:53;97433.59;;;10.70;100.00
11448;BME280;43755;49.736;8.734;2022-11-15T03:11:03;97427.69;;;10.65;100.00
11448;BME280;43755;49.736;8.734;2022-11-15T03:13:15;97426.06;;;10.62;100.00
11448;BME280;43755;49.736;8.734;2022-11-15T03:15:21;97421.00;;;10.58;100.00
11448;BME280;43755;49.736;8.734;2022-11-15T03:17:28;97420.16;;;10.57;100.00
11448;BME280;43755;49.736;8.734;2022-11-15T03:19:35;97429.03;;;10.56;100.00
11448;BME280;43755;49.736;8.734;2022-11-15T03:21:41;97423.06;;;10.53;100.00
11448;BME280;43755;49.736;8.734;2022-11-15T03:23:43;97421.09;;;10.56;100.00
11448;BME280;43755;49.736;8.734;2022-11-15T03:25:48;97426.38;;;10.56;100.00
11448;BME280;43755;49.736;8.734;2022-11-15T03:27:54;97420.22;;;10.56;100.00
11448;BME280;43755;49.736;8.734;2022-11-15T03:30:00;97420.31;;;10.54;100.00
11448;BME280;43755;49.736;8.734;2022-11-15T03:32:06;97420.41;;;10.53;100.00
11448;BME280;43755;49.736;8.734;2022-11-15T03:34:19;97418.06;;;10.47;100.00
11448;BME280;43755;49.736;8.734;2022-11-15T03:36:23;97419.69;;;10.49;100.00
11448;BME280;43755;49.736;8.734;2022-11-15T03:38:26;97424.84;;;10.52;100.00
11448;BME280;43755;49.736;8.734;2022-11-15T03:40:36;97413.88;;;10.60;100.00
11448;BME280;43755;49.736;8.734;2022-11-15T03:42:43;97416.63;;;10.74;100.00
11448;BME280;43755;49.736;8.734;2022-11-15T03:44:58;97416.63;;;10.74;100.00
11448;BME280;43755;49.736;8.734;2022-11-15T03:47:05;97422.78;;;10.75;100.00
11448;BME280;43755;49.736;8.734;2022-11-15T03:49:12;97415.09;;;10.70;100.00
11448;BME280;43755;49.736;8.734;2022-11-15T03:51:14;97420.19;;;10.73;100.00
11448;BME280;43755;49.736;8.734;2022-11-15T03:53:16;97421.91;;;10.74;100.00
11448;BME280;43755;49.736;8.734;2022-11-15T03:55:19;97410.16;;;10.80;100.00
11448;BME280;43755;49.736;8.734;2022-11-15T03:57:21;97411.72;;;10.84;100.00
11448;BME280;43755;49.736;8.734;2022-11-15T03:59:23;97422.81;;;10.90;100.00
11448;BME280;43755;49.736;8.734;2022-11-15T04:01:24;97414.81;;;11.07;100.00
11448;BME280;43755;49.736;8.734;2022-11-15T04:03:26;97417.06;;;11.15;100.00
11448;BME280;43755;49.736;8.734;2022-11-15T04:05:28;97414.00;;;11.23;100.00
11448;BME280;43755;49.736;8.734;2022-11-15T04:07:30;97423.66;;;11.24;100.00
11448;BME280;43755;49.736;8.734;2022-11-15T04:09:31;97415.38;;;11.30;100.00
11448;BME280;43755;49.736;8.734;2022-11-15T04:11:32;97427.31;;;11.37;100.00
11448;BME280;43755;49.736;8.734;2022-11-15T04:13:34;97414.88;;;11.39;100.00
11448;BME280;43755;49.736;8.734;2022-11-15T04:15:35;97427.00;;;11.43;100.00
11448;BME280;43755;49.736;8.734;2022-11-15T04:17:39;97419.22;;;11.40;100.00
11448;BME280;43755;49.736;8.734;2022-11-15T04:19:41;97420.16;;;11.39;100.00
11448;BME280;43755;49.736;8.734;2022-11-15T04:22:01;97425.03;;;11.31;100.00
11448;BME280;43755;49.736;8.734;2022-11-15T04:24:19;97414.78;;;11.25;100.00
11448;BME280;43755;49.736;8.734;2022-11-15T04:26:22;97412.22;;;11.23;100.00
11448;BME280;43755;49.736;8.734;2022-11-15T04:28:24;97422.09;;;11.20;100.00
11448;BME280;43755;49.736;8.734;2022-11-15T04:30:25;97415.88;;;11.21;100.00
11448;BME280;43755;49.736;8.734;2022-11-15T04:32:26;97404.59;;;11.17;100.00
11448;BME280;43755;49.736;8.734;2022-11-15T04:34:27;97419.38;;;11.21;100.00
11448;BME280;43755;49.736;8.734;2022-11-15T04:36:28;97420.91;;;11.25;100.00
11448;BME280;43755;49.736;8.734;2022-11-15T04:38:49;97409.38;;;11.26;100.00
11448;BME280;43755;49.736;8.734;2022-11-15T04:40:50;97419.31;;;11.23;100.00
11448;BME280;43755;49.736;8.734;2022-11-15T04:42:52;97420.25;;;11.22;100.00
11448;BME280;43755;49.736;8.734;2022-11-15T04:44:53;97413.06;;;11.24;100.00
11448;BME280;43755;49.736;8.734;2022-11-15T04:46:56;97422.09;;;11.20;100.00
11448;BME280;43755;49.736;8.734;2022-11-15T04:48:57;97418.59;;;11.19;100.00
11448;BME280;43755;49.736;8.734;2022-11-15T04:50:59;97414.94;;;11.22;100.00
11448;BME280;43755;49.736;8.734;2022-11-15T04:53:00;97414.00;;;11.23;100.00
11448;BME280;43755;49.736;8.734;2022-11-15T04:55:03;97403.22;;;11.26;100.00
11448;BME280;43755;49.736;8.734;2022-11-15T04:57:05;97409.22;;;11.29;100.00
11448;BME280;43755;49.736;8.734;2022-11-15T04:59:06;97408.72;;;11.38;100.00
11448;BME280;43755;49.736;8.734;2022-11-15T05:01:08;97406.94;;;11.39;100.00
11448;BME280;43755;49.736;8.734;2022-11-15T05:03:09;97406.78;;;11.42;100.00
11448;BME280;43755;49.736;8.734;2022-11-15T05:05:28;97405.91;;;11.41;100.00
11448;BME280;43755;49.736;8.734;2022-11-15T05:07:30;97405.81;;;11.43;100.00
11448;BME280;43755;49.736;8.734;2022-11-15T05:09:31;97406.00;;;11.40;100.00
11448;BME280;43755;49.736;8.734;2022-11-15T05:11:34;97407.84;;;11.38;100.00
11448;BME280;43755;49.736;8.734;2022-11-15T05:13:35;97400.03;;;11.36;100.00
11448;BME280;43755;49.736;8.734;2022-11-15T05:15:37;97391.22;;;11.36;100.00
11448;BME280;43755;49.736;8.734;2022-11-15T05:17:38;97387.72;;;11.35;100.00
11448;BME280;43755;49.736;8.734;2022-11-15T05:19:39;97388.06;;;11.29;100.00
11448;BME280;43755;49.736;8.734;2022-11-15T05:21:41;97391.38;;;11.33;100.00
11448;BME280;43755;49.736;8.734;2022-11-15T05:23:42;97386.00;;;11.34;100.00
11448;BME280;43755;49.736;8.734;2022-11-15T05:25:44;97394.53;;;11.39;100.00
11448;BME280;43755;49.736;8.734;2022-11-15T05:27:46;97394.03;;;11.33;100.00
11448;BME280;43755;49.736;8.734;2022-11-15T05:29:48;97390.63;;;11.31;100.00
11448;BME280;43755;49.736;8.734;2022-11-15T05:31:49;97381.63;;;11.33;100.00
11448;BME280;43755;49.736;8.734;2022-11-15T05:33:51;97388.47;;;11.37;100.00
11448;BME280;43755;49.736;8.734;2022-11-15T05:35:56;97389.25;;;11.39;100.00
11448;BME280;43755;49.736;8.734;2022-11-15T05:38:00;97377.88;;;11.37;100.00
11448;BME280;43755;49.736;8.734;2022-11-15T05:40:02;97370.78;;;11.38;100.00
11448;BME280;43755;49.736;8.734;2022-11-15T05:42:07;97375.31;;;11.36;100.00
11448;BME280;43755;49.736;8.734;2022-11-15T05:44:13;97363.44;;;11.27;100.00
11448;BME280;43755;49.736;8.734;2022-11-15T05:46:16;97370.72;;;11.24;100.00
11448;BME280;43755;49.736;8.734;2022-11-15T05:48:18;97369.50;;;11.29;100.00
11448;BME280;43755;49.736;8.734;2022-11-15T05:50:20;97367.03;;;11.26;100.00
11448;BME280;43755;49.736;8.734;2022-11-15T05:52:24;97360.13;;;11.24;100.00
11448;BME280;43755;49.736;8.734;2022-11-15T05:54:26;97361.13;;;11.21;100.00
11448;BME280;43755;49.736;8.734;2022-11-15T05:56:29;97365.41;;;11.24;100.00
11448;BME280;43755;49.736;8.734;2022-11-15T05:58:31;97364.31;;;11.28;100.00
11448;BME280;43755;49.736;8.734;2022-11-15T06:00:34;97359.34;;;11.22;100.00
11448;BME280;43755;49.736;8.734;2022-11-15T06:02:35;97362.19;;;11.19;100.00
11448;BME280;43755;49.736;8.734;2022-11-15T06:04:36;97363.34;;;11.44;100.00
11448;BME280;43755;49.736;8.734;2022-11-15T06:06:38;97355.56;;;11.26;100.00
11448;BME280;43755;49.736;8.734;2022-11-15T06:08:39;97361.66;;;11.12;100.00
11448;BME280;43755;49.736;8.734;2022-11-15T06:10:41;97362.94;;;11.05;100.00
11448;BME280;43755;49.736;8.734;2022-11-15T06:12:42;97372.91;;;11.00;100.00
11448;BME280;43755;49.736;8.734;2022-11-15T06:14:43;97367.94;;;10.94;100.00
11448;BME280;43755;49.736;8.734;2022-11-15T06:16:46;97369.75;;;10.93;100.00
11448;BME280;43755;49.736;8.734;2022-11-15T06:18:48;97369.22;;;10.87;100.00
11448;BME280;43755;49.736;8.734;2022-11-15T06:20:49;97369.53;;;10.81;100.00
11448;BME280;43755;49.736;8.734;2022-11-15T06:22:50;97368.59;;;10.82;100.00
11448;BME280;43755;49.736;8.734;2022-11-15T06:24:52;97370.47;;;10.80;100.00
11448;BME280;43755;49.736;8.734;2022-11-15T06:26:53;97367.56;;;10.84;100.00
11448;BME280;43755;49.736;8.734;2022-11-15T06:28:55;97366.97;;;10.79;100.00
11448;BME280;43755;49.736;8.734;2022-11-15T06:31:02;97362.59;;;10.78;100.00
11448;BME280;43755;49.736;8.734;2022-11-15T06:33:05;97363.72;;;10.74;100.00
11448;BME280;43755;49.736;8.734;2022-11-15T06:35:08;97368.88;;;10.77;100.00
11448;BME280;43755;49.736;8.734;2022-11-15T06:37:10;97362.72;;;10.77;100.00
11448;BME280;43755;49.736;8.734;2022-11-15T06:39:11;97365.25;;;10.78;100.00
11448;BME280;43755;49.736;8.734;2022-11-15T06:41:13;97365.34;;;10.77;100.00
11448;BME280;43755;49.736;8.734;2022-11-15T06:43:15;97369.38;;;10.84;100.00
11448;BME280;43755;49.736;8.734;2022-11-15T06:45:16;97377.94;;;10.89;100.00
11448;BME280;43755;49.736;8.734;2022-11-15T06:47:18;97367.16;;;10.92;100.00
11448;BME280;43755;49.736;8.734;2022-11-15T06:49:20;97375.69;;;10.97;100.00
11448;BME280;43755;49.736;8.734;2022-11-15T06:51:22;97374.69;;;10.99;100.00
11448;BME280;43755;49.736;8.734;2022-11-15T06:53:23;97376.22;;;11.03;100.00
11448;BME280;43755;49.736;8.734;2022-11-15T06:55:25;97375.31;;;11.04;100.00
11448;BME280;43755;49.736;8.734;2022-11-15T06:57:26;97387.41;;;11.08;100.00
11448;BME280;43755;49.736;8.734;2022-11-15T06:59:28;97382.91;;;11.11;100.00
11448;BME280;43755;49.736;8.734;2022-11-15T07:01:29;97382.84;;;11.12;100.00
11448;BME280;43755;49.736;8.734;2022-11-15T07:03:31;97377.75;;;11.07;100.00
11448;BME280;43755;49.736;8.734;2022-11-15T07:05:34;97379.72;;;11.04;100.00
11448;BME280;43755;49.736;8.734;2022-11-15T07:07:36;97374.44;;;11.04;100.00
11448;BME280;43755;49.736;8.734;2022-11-15T07:09:37;97375.13;;;11.07;100.00
11448;BME280;43755;49.736;8.734;2022-11-15T07:11:39;97361.72;;;11.11;100.00
11448;BME280;43755;49.736;8.734;2022-11-15T07:13:40;97361.81;;;11.09;100.00
11448;BME280;43755;49.736;8.734;2022-11-15T07:15:42;97370.34;;;11.14;100.00
11448;BME280;43755;49.736;8.734;2022-11-15T07:17:43;97368.56;;;11.15;100.00
11448;BME280;43755;49.736;8.734;2022-11-15T07:19:45;97369.00;;;11.23;100.00
11448;BME280;43755;49.736;8.734;2022-11-15T07:21:48;97371.38;;;11.27;100.00
11448;BME280;43755;49.736;8.734;2022-11-15T07:23:49;97372.16;;;11.29;100.00
11448;BME280;43755;49.736;8.734;2022-11-15T07:25:50;97369.91;;;11.37;100.00
11448;BME280;43755;49.736;8.734;2022-11-15T07:27:54;97366.59;;;11.49;100.00
11448;BME280;43755;49.736;8.734;2022-11-15T07:29:56;97368.38;;;11.49;100.00
11448;BME280;43755;49.736;8.734;2022-11-15T07:31:57;97377.03;;;11.53;100.00
11448;BME280;43755;49.736;8.734;2022-11-15T07:33:59;97367.97;;;11.57;100.00
11448;BME280;43755;49.736;8.734;2022-11-15T07:36:00;97367.88;;;11.58;100.00
11448;BME280;43755;49.736;8.734;2022-11-15T07:38:04;97363.25;;;11.62;100.00
11448;BME280;43755;49.736;8.734;2022-11-15T07:40:06;97363.09;;;11.65;100.00
11448;BME280;43755;49.736;8.734;2022-11-15T07:42:08;97375.28;;;11.67;100.00
11448;BME280;43755;49.736;8.734;2022-11-15T07:44:27;97379.72;;;11.67;100.00
11448;BME280;43755;49.736;8.734;2022-11-15T07:46:29;97372.13;;;11.61;100.00
11448;BME280;43755;49.736;8.734;2022-11-15T07:48:30;97376.41;;;11.63;100.00
11448;BME280;43755;49.736;8.734;2022-11-15T07:50:32;97376.59;;;11.60;100.00
11448;BME280;43755;49.736;8.734;2022-11-15T07:52:33;97373.09;;;11.60;100.00
11448;BME280;43755;49.736;8.734;2022-11-15T07:54:36;97377.63;;;11.58;100.00
11448;BME280;43755;49.736;8.734;2022-11-15T07:56:37;97373.09;;;11.60;100.00
11448;BME280;43755;49.736;8.734;2022-11-15T07:58:39;97377.63;;;11.73;100.00
11448;BME280;43755;49.736;8.734;2022-11-15T08:00:40;97376.84;;;11.87;100.00
11448;BME280;43755;49.736;8.734;2022-11-15T08:02:42;97378.13;;;11.96;100.00
11448;BME280;43755;49.736;8.734;2022-11-15T08:04:43;97377.66;;;12.03;100.00
11448;BME280;43755;49.736;8.734;2022-11-15T08:06:45;97368.47;;;12.09;100.00
11448;BME280;43755;49.736;8.734;2022-11-15T08:08:46;97372.41;;;12.17;100.00
11448;BME280;43755;49.736;8.734;2022-11-15T08:10:49;97372.63;;;12.28;100.00
11448;BME280;43755;49.736;8.734;2022-11-15T08:12:57;97376.50;;;12.37;100.00
11448;BME280;43755;49.736;8.734;2022-11-15T08:14:58;97364.09;;;12.38;100.00
11448;BME280;43755;49.736;8.734;2022-11-15T08:17:00;97360.84;;;12.48;100.00
11448;BME280;43755;49.736;8.734;2022-11-15T08:19:01;97361.28;;;12.55;100.00
11448;BME280;43755;49.736;8.734;2022-11-15T08:21:03;97362.63;;;12.62;100.00
11448;BME280;43755;49.736;8.734;2022-11-15T08:23:05;97362.53;;;12.63;100.00
11448;BME280;43755;49.736;8.734;2022-11-15T08:25:07;97362.34;;;12.66;100.00
11448;BME280;43755;49.736;8.734;2022-11-15T08:27:10;97356.84;;;12.69;100.00
11448;BME280;43755;49.736;8.734;2022-11-15T08:29:15;97353.56;;;12.66;100.00
11448;BME280;43755;49.736;8.734;2022-11-15T08:31:17;97356.94;;;12.68;100.00
11448;BME280;43755;49.736;8.734;2022-11-15T08:33:19;97352.03;;;12.76;100.00
11448;BME280;43755;49.736;8.734;2022-11-15T08:35:20;97356.56;;;12.74;100.00
11448;BME280;43755;49.736;8.734;2022-11-15T08:37:22;97355.63;;;12.75;100.00
11448;BME280;43755;49.736;8.734;2022-11-15T08:39:23;97358.09;;;12.78;100.00
11448;BME280;43755;49.736;8.734;2022-11-15T08:41:26;97356.28;;;12.79;100.00
11448;BME280;43755;49.736;8.734;2022-11-15T08:43:30;97349.38;;;12.76;100.00
11448;BME280;43755;49.736;8.734;2022-11-15T08:45:34;97355.63;;;12.75;100.00
11448;BME280;43755;49.736;8.734;2022-11-15T08:47:35;97352.81;;;12.78;100.00
11448;BME280;43755;49.736;8.734;2022-11-15T08:49:37;97354.22;;;12.84;100.00
11448;BME280;43755;49.736;8.734;2022-11-15T08:51:38;97348.63;;;12.88;100.00
11448;BME280;43755;49.736;8.734;2022-11-15T08:53:40;97352.69;;;12.94;100.00
11448;BME280;43755;49.736;8.734;2022-11-15T08:55:41;97350.38;;;13.02;100.00
11448;BME280;43755;49.736;8.734;2022-11-15T08:57:43;97353.50;;;13.08;100.00
11448;BME280;43755;49.736;8.734;2022-11-15T08:59:45;97352.31;;;13.14;100.00
11448;BME280;43755;49.736;8.734;2022-11-15T09:01:47;97349.38;;;13.19;100.00
11448;BME280;43755;49.736;8.734;2022-11-15T09:03:48;97351.44;;;13.13;100.00
11448;BME280;43755;49.736;8.734;2022-11-15T09:05:54;97351.84;;;13.22;100.00
11448;BME280;43755;49.736;8.734;2022-11-15T09:07:55;97351.84;;;13.22;100.00
11448;BME280;43755;49.736;8.734;2022-11-15T09:09:57;97353.72;;;13.20;100.00
11448;BME280;43755;49.736;8.734;2022-11-15T09:11:58;97349.66;;;13.14;100.00
11448;BME280;43755;49.736;8.734;2022-11-15T09:14:00;97346.34;;;13.25;100.00
11448;BME280;43755;49.736;8.734;2022-11-15T09:16:03;97339.97;;;13.27;100.00
11448;BME280;43755;49.736;8.734;2022-11-15T09:18:05;97340.25;;;13.37;100.00
11448;BME280;43755;49.736;8.734;2022-11-15T09:20:07;97339.25;;;13.38;100.00
11448;BME280;43755;49.736;8.734;2022-11-15T09:22:09;97337.22;;;13.29;100.00
11448;BME280;43755;49.736;8.734;2022-11-15T09:24:11;97341.06;;;13.37;100.00
11448;BME280;43755;49.736;8.734;2022-11-15T09:26:12;97344.41;;;13.41;100.00
11448;BME280;43755;49.736;8.734;2022-11-15T09:28:14;97340.69;;;13.43;100.00
11448;BME280;43755;49.736;8.734;2022-11-15T09:30:15;97340.28;;;13.49;100.00
11448;BME280;43755;49.736;8.734;2022-11-15T09:32:18;97338.59;;;13.48;100.00
11448;BME280;43755;49.736;8.734;2022-11-15T09:34:20;97336.50;;;13.53;100.00
11448;BME280;43755;49.736;8.734;2022-11-15T09:36:21;97330.81;;;13.45;100.00
11448;BME280;43755;49.736;8.734;2022-11-15T09:38:23;97335.28;;;13.45;100.00
11448;BME280;43755;49.736;8.734;2022-11-15T09:40:24;97334.97;;;13.49;100.00
11448;BME280;43755;49.736;8.734;2022-11-15T09:42:37;97342.94;;;13.49;100.00
11448;BME280;43755;49.736;8.734;2022-11-15T09:44:55;97335.34;;;13.43;100.00
11448;BME280;43755;49.736;8.734;2022-11-15T09:47:10;97339.94;;;13.41;100.00
11448;BME280;43755;49.736;8.734;2022-11-15T09:49:21;97334.47;;;13.30;100.00
11448;BME280;43755;49.736;8.734;2022-11-15T09:51:28;97334.25;;;13.33;100.00
11448;BME280;43755;49.736;8.734;2022-11-15T09:53:35;97328.16;;;13.45;100.00
11448;BME280;43755;49.736;8.734;2022-11-15T09:55:44;97332.03;;;13.54;100.00
11448;BME280;43755;49.736;8.734;2022-11-15T09:57:55;97325.41;;;13.47;100.00
11448;BME280;43755;49.736;8.734;2022-11-15T10:00:20;97313.94;;;13.32;100.00
11448;BME280;43755;49.736;8.734;2022-11-15T10:02:33;97324.63;;;13.18;100.00
11448;BME280;43755;49.736;8.734;2022-11-15T10:04:41;97316.06;;;13.27;100.00
11448;BME280;43755;49.736;8.734;2022-11-15T10:06:49;97321.66;;;13.37;100.00
11448;BME280;43755;49.736;8.734;2022-11-15T10:08:59;97323.78;;;13.44;100.00
11448;BME280;43755;49.736;8.734;2022-11-15T10:11:04;97314.41;;;13.39;100.00
11448;BME280;43755;49.736;8.734;2022-11-15T10:13:13;97315.09;;;13.28;100.00
11448;BME280;43755;49.736;8.734;2022-11-15T10:15:16;97310.44;;;13.32;100.00
11448;BME280;43755;49.736;8.734;2022-11-15T10:17:46;97317.16;;;13.37;100.00
11448;BME280;43755;49.736;8.734;2022-11-15T10:20:05;97307.06;;;13.30;100.00
11448;BME280;43755;49.736;8.734;2022-11-15T10:22:18;97304.13;;;13.20;100.00
11448;BME280;43755;49.736;8.734;2022-11-15T10:24:27;97309.59;;;13.31;100.00
11448;BME280;43755;49.736;8.734;2022-11-15T10:26:29;97302.03;;;13.25;100.00
11448;BME280;43755;49.736;8.734;2022-11-15T10:28:31;97303.06;;;13.23;100.00
11448;BME280;43755;49.736;8.734;2022-11-15T10:30:34;97295.09;;;13.23;100.00
11448;BME280;43755;49.736;8.734;2022-11-15T10:32:36;97298.53;;;13.25;100.00
11448;BME280;43755;49.736;8.734;2022-11-15T10:34:38;97294.31;;;13.35;100.00
11448;BME280;43755;49.736;8.734;2022-11-15T10:36:44;97285.81;;;13.30;100.00
11448;BME280;43755;49.736;8.734;2022-11-15T10:38:52;97282.63;;;13.37;100.00
11448;BME280;43755;49.736;8.734;2022-11-15T10:41:06;97284.88;;;13.17;100.00
11448;BME280;43755;49.736;8.734;2022-11-15T10:43:16;97287.97;;;13.09;100.00
11448;BME280;43755;49.736;8.734;2022-11-15T10:45:26;97290.84;;;13.06;100.00
11448;BME280;43755;49.736;8.734;2022-11-15T10:47:29;97283.19;;;13.01;100.00
11448;BME280;43755;49.736;8.734;2022-11-15T10:49:33;97279.22;;;12.94;100.00